createdAt,value
2018-02-01T00:01:03.769Z,0
2018-02-01T00:02:13.454Z,0
2018-02-01T00:03:23.142Z,0
2018-02-01T00:04:33.095Z,0
2018-02-01T00:05:43.042Z,0
2018-02-01T00:06:52.990Z,0
2018-02-01T00:08:02.942Z,0
2018-02-01T00:09:12.890Z,0
2018-02-01T00:10:22.588Z,0
2018-02-01T00:11:32.544Z,0
2018-02-01T00:12:42.247Z,0
2018-02-01T00:13:52.199Z,0
2018-02-01T00:15:01.900Z,0
2018-02-01T00:16:11.862Z,0
2018-02-01T00:17:21.822Z,0
2018-02-01T00:18:31.248Z,0
2018-02-01T00:19:41.207Z,0
2018-02-01T00:20:51.150Z,0
2018-02-01T00:22:01.096Z,0
2018-02-01T00:23:11.036Z,0
2018-02-01T00:24:20.726Z,0
2018-02-01T00:25:30.681Z,0
2018-02-01T00:26:40.127Z,0
2018-02-01T00:27:50.085Z,0
2018-02-01T00:28:59.784Z,0
2018-02-01T00:30:09.500Z,0
2018-02-01T00:31:19.691Z,0
2018-02-01T00:32:29.630Z,0
2018-02-01T00:33:39.594Z,0
2018-02-01T00:34:49.545Z,0
2018-02-01T00:35:59.487Z,0
2018-02-01T00:37:09.172Z,0
2018-02-01T00:38:19.122Z,0
2018-02-01T00:39:28.819Z,0
2018-02-01T00:40:38.804Z,0
2018-02-01T00:41:48.498Z,0
2018-02-01T00:42:58.190Z,0
2018-02-01T00:44:07.873Z,0
2018-02-01T00:45:17.825Z,0
2018-02-01T00:46:27.512Z,0
2018-02-01T00:47:37.456Z,0
2018-02-01T00:48:47.142Z,0
2018-02-01T00:49:57.082Z,0
2018-02-01T00:51:07.031Z,0
2018-02-01T00:52:16.973Z,0
2018-02-01T00:53:26.917Z,0
2018-02-01T00:54:36.090Z,0
2018-02-01T00:55:46.040Z,0
2018-02-01T00:56:55.982Z,0
2018-02-01T00:58:05.931Z,0
2018-02-01T00:59:15.879Z,0
2018-02-01T01:00:25.583Z,0
2018-02-01T01:01:35.533Z,0
2018-02-01T01:02:45.470Z,0
2018-02-01T01:03:54.902Z,0
2018-02-01T01:05:04.851Z,0
2018-02-01T01:06:14.795Z,0
2018-02-01T01:07:24.480Z,0
2018-02-01T01:08:34.421Z,0
2018-02-01T01:09:44.353Z,0
2018-02-01T01:10:54.341Z,0
2018-02-01T01:12:04.028Z,0
2018-02-01T01:13:13.969Z,0
2018-02-01T01:14:23.667Z,0
2018-02-01T01:15:33.632Z,0
2018-02-01T01:16:43.318Z,0
2018-02-01T01:17:52.758Z,0
2018-02-01T01:19:02.484Z,0
2018-02-01T01:20:12.426Z,0
2018-02-01T01:21:22.109Z,0
2018-02-01T01:22:31.797Z,0
2018-02-01T01:23:41.743Z,0
2018-02-01T01:24:51.429Z,0
2018-02-01T01:26:01.114Z,0
2018-02-01T01:27:11.066Z,0
2018-02-01T01:28:21.046Z,0
2018-02-01T01:29:30.741Z,0
2018-02-01T01:30:40.434Z,0
2018-02-01T01:31:49.862Z,0
2018-02-01T01:32:59.549Z,0
2018-02-01T01:34:09.245Z,0
2018-02-01T01:35:19.434Z,0
2018-02-01T01:36:29.116Z,0
2018-02-01T01:37:38.801Z,0
2018-02-01T01:38:48.735Z,0
2018-02-01T01:39:58.429Z,0
2018-02-01T01:41:08.378Z,0
2018-02-01T01:42:18.321Z,0
2018-02-01T01:43:28.000Z,0
2018-02-01T01:44:37.935Z,0
2018-02-01T01:45:47.930Z,0
2018-02-01T01:46:57.625Z,0
2018-02-01T01:48:07.330Z,0
2018-02-01T01:49:17.273Z,0
2018-02-01T01:50:27.219Z,0
2018-02-01T01:51:37.158Z,0
2018-02-01T01:52:47.092Z,0
2018-02-01T01:53:57.027Z,0
2018-02-01T01:55:06.974Z,0
2018-02-01T01:56:16.672Z,0
2018-02-01T01:57:25.846Z,0
2018-02-01T01:58:35.791Z,0
2018-02-01T01:59:45.489Z,0
2018-02-01T02:00:54.924Z,0
2018-02-01T02:02:04.876Z,0
2018-02-01T02:03:14.872Z,0
2018-02-01T02:04:24.558Z,0
2018-02-01T02:05:34.504Z,0
2018-02-01T02:06:44.195Z,0
2018-02-01T02:07:53.885Z,0
2018-02-01T02:09:03.579Z,0
2018-02-01T02:10:13.262Z,0
2018-02-01T02:11:23.206Z,0
2018-02-01T02:12:33.141Z,0
2018-02-01T02:13:42.823Z,0
2018-02-01T02:14:52.515Z,0
2018-02-01T02:16:02.460Z,0
2018-02-01T02:17:12.406Z,0
2018-02-01T02:18:22.130Z,0
2018-02-01T02:19:32.081Z,0
2018-02-01T02:20:41.762Z,0
2018-02-01T02:21:51.735Z,0
2018-02-01T02:23:01.682Z,0
2018-02-01T02:24:11.636Z,0
2018-02-01T02:25:21.331Z,0
2018-02-01T02:26:31.332Z,0
2018-02-01T02:27:41.284Z,0
2018-02-01T02:28:51.274Z,0
2018-02-01T02:30:01.230Z,0
2018-02-01T02:31:11.186Z,0
2018-02-01T02:32:20.884Z,0
2018-02-01T02:33:30.324Z,0
2018-02-01T02:34:40.007Z,0
2018-02-01T02:35:50.011Z,0
2018-02-01T02:36:59.957Z,0
2018-02-01T02:38:09.658Z,0
2018-02-01T02:39:19.342Z,0
2018-02-01T02:40:29.293Z,0
2018-02-01T02:41:38.984Z,0
2018-02-01T02:42:48.970Z,0
2018-02-01T02:43:58.926Z,0
2018-02-01T02:45:08.609Z,0
2018-02-01T02:46:18.298Z,0
2018-02-01T02:47:27.994Z,0
2018-02-01T02:48:37.946Z,0
2018-02-01T02:49:47.635Z,0
2018-02-01T02:50:57.607Z,0
2018-02-01T02:52:07.731Z,0
2018-02-01T02:53:17.699Z,0
2018-02-01T02:54:27.646Z,0
2018-02-01T02:55:37.586Z,0
2018-02-01T02:56:47.534Z,0
2018-02-01T02:57:57.485Z,0
2018-02-01T02:59:07.447Z,0
2018-02-01T03:00:17.404Z,0
2018-02-01T03:01:27.356Z,0
2018-02-01T03:02:37.300Z,0
2018-02-01T03:03:46.991Z,0
2018-02-01T03:04:56.672Z,0
2018-02-01T03:06:06.621Z,0
2018-02-01T03:07:16.320Z,0
2018-02-01T03:08:26.270Z,0
2018-02-01T03:09:36.213Z,0
2018-02-01T03:10:46.157Z,0
2018-02-01T03:11:56.097Z,0
2018-02-01T03:13:05.529Z,0
2018-02-01T03:14:15.210Z,0
2018-02-01T03:15:25.143Z,0
2018-02-01T03:16:34.582Z,0
2018-02-01T03:17:44.300Z,0
2018-02-01T03:18:53.727Z,0
2018-02-01T03:20:03.692Z,0
2018-02-01T03:21:13.629Z,0
2018-02-01T03:22:23.565Z,0
2018-02-01T03:23:33.251Z,0
2018-02-01T03:24:43.204Z,0
2018-02-01T03:25:52.909Z,0
2018-02-01T03:27:02.868Z,0
2018-02-01T03:28:12.810Z,0
2018-02-01T03:29:22.739Z,0
2018-02-01T03:30:32.426Z,0
2018-02-01T03:31:42.423Z,0
2018-02-01T03:32:52.376Z,0
2018-02-01T03:34:02.337Z,0
2018-02-01T03:35:11.771Z,0
2018-02-01T03:36:21.201Z,0
2018-02-01T03:37:31.397Z,0
2018-02-01T03:38:41.088Z,0
2018-02-01T03:39:51.026Z,0
2018-02-01T03:41:00.970Z,0
2018-02-01T03:42:10.921Z,0
2018-02-01T03:43:20.360Z,0
2018-02-01T03:44:30.304Z,0
2018-02-01T03:45:39.994Z,0
2018-02-01T03:46:49.944Z,0
2018-02-01T03:47:59.882Z,0
2018-02-01T03:49:09.830Z,0
2018-02-01T03:50:19.824Z,0
2018-02-01T03:51:29.508Z,0
2018-02-01T03:52:39.454Z,0
2018-02-01T03:53:49.396Z,0
2018-02-01T03:54:59.323Z,0
2018-02-01T03:56:08.755Z,0
2018-02-01T03:57:18.705Z,0
2018-02-01T03:58:28.389Z,0
2018-02-01T03:59:38.077Z,0
2018-02-01T04:00:48.031Z,0
2018-02-01T04:01:57.976Z,0
2018-02-01T04:03:07.936Z,0
2018-02-01T04:04:17.879Z,0
2018-02-01T04:05:27.820Z,0
2018-02-01T04:06:37.763Z,0
2018-02-01T04:07:47.441Z,0
2018-02-01T04:08:57.381Z,0
2018-02-01T04:10:07.329Z,0
2018-02-01T04:11:17.007Z,0
2018-02-01T04:12:26.938Z,0
2018-02-01T04:13:36.368Z,0
2018-02-01T04:14:46.305Z,0
2018-02-01T04:15:56.251Z,0
2018-02-01T04:17:06.212Z,0
2018-02-01T04:18:15.638Z,0
2018-02-01T04:19:25.577Z,0
2018-02-01T04:20:35.535Z,0
2018-02-01T04:21:45.490Z,0
2018-02-01T04:22:55.428Z,0
2018-02-01T04:24:05.372Z,0
2018-02-01T04:25:15.305Z,0
2018-02-01T04:26:25.243Z,0
2018-02-01T04:27:35.184Z,0
2018-02-01T04:28:45.124Z,0
2018-02-01T04:29:55.310Z,0
2018-02-01T04:31:05.247Z,0
2018-02-01T04:32:14.941Z,0
2018-02-01T04:33:24.878Z,0
2018-02-01T04:34:34.567Z,0
2018-02-01T04:35:44.506Z,0
2018-02-01T04:36:54.440Z,0
2018-02-01T04:38:04.140Z,0
2018-02-01T04:39:14.106Z,0
2018-02-01T04:40:23.800Z,0
2018-02-01T04:41:33.493Z,0
2018-02-01T04:42:43.438Z,0
2018-02-01T04:43:53.384Z,0
2018-02-01T04:45:03.069Z,0
2018-02-01T04:46:13.015Z,0
2018-02-01T04:47:22.953Z,0
2018-02-01T04:48:32.643Z,0
2018-02-01T04:49:42.333Z,0
2018-02-01T04:50:52.270Z,0
2018-02-01T04:52:01.951Z,0
2018-02-01T04:53:11.645Z,0
2018-02-01T04:54:21.592Z,0
2018-02-01T04:55:31.540Z,0
2018-02-01T04:56:41.219Z,0
2018-02-01T04:57:50.901Z,0
2018-02-01T04:59:00.587Z,0
2018-02-01T05:00:10.267Z,0
2018-02-01T05:01:19.953Z,0
2018-02-01T05:02:29.898Z,0
2018-02-01T05:03:39.589Z,0
2018-02-01T05:04:49.529Z,0
2018-02-01T05:05:59.478Z,0
2018-02-01T05:07:09.419Z,0
2018-02-01T05:08:19.118Z,0
2018-02-01T05:09:29.054Z,0
2018-02-01T05:10:38.987Z,0
2018-02-01T05:11:48.925Z,0
2018-02-01T05:12:58.869Z,0
2018-02-01T05:14:08.823Z,0
2018-02-01T05:15:18.519Z,0
2018-02-01T05:16:27.947Z,0
2018-02-01T05:17:37.887Z,0
2018-02-01T05:18:47.628Z,0
2018-02-01T05:19:57.616Z,0
2018-02-01T05:21:07.309Z,0
2018-02-01T05:22:17.255Z,0
2018-02-01T05:23:26.935Z,0
2018-02-01T05:24:36.881Z,0
2018-02-01T05:25:46.827Z,0
2018-02-01T05:26:56.520Z,0
2018-02-01T05:28:06.210Z,0
2018-02-01T05:29:16.167Z,0
2018-02-01T05:30:25.853Z,0
2018-02-01T05:31:35.805Z,0
2018-02-01T05:32:45.246Z,0
2018-02-01T05:33:55.192Z,0
2018-02-01T05:35:04.884Z,0
2018-02-01T05:36:14.826Z,0
2018-02-01T05:37:24.513Z,0
2018-02-01T05:38:34.458Z,0
2018-02-01T05:39:44.398Z,0
2018-02-01T05:40:54.346Z,0
2018-02-01T05:42:04.284Z,0
2018-02-01T05:43:14.232Z,0
2018-02-01T05:44:23.926Z,0
2018-02-01T05:45:33.872Z,0
2018-02-01T05:46:43.845Z,0
2018-02-01T05:47:53.538Z,0
2018-02-01T05:49:03.494Z,0
2018-02-01T05:50:13.178Z,0
2018-02-01T05:51:23.419Z,0
2018-02-01T05:52:33.127Z,0
2018-02-01T05:53:43.093Z,0
2018-02-01T05:54:53.040Z,0
2018-02-01T05:56:02.993Z,0
2018-02-01T05:57:13.242Z,0
2018-02-01T05:58:22.684Z,0
2018-02-01T05:59:32.627Z,0
2018-02-01T06:00:42.580Z,0
2018-02-01T06:01:52.263Z,0
2018-02-01T06:03:02.205Z,0
2018-02-01T06:04:12.185Z,0
2018-02-01T06:05:22.118Z,0
2018-02-01T06:06:31.810Z,0
2018-02-01T06:07:41.755Z,0
2018-02-01T06:08:50.923Z,0
2018-02-01T06:10:00.612Z,0
2018-02-01T06:11:10.310Z,0
2018-02-01T06:12:19.743Z,0
2018-02-01T06:13:29.694Z,0
2018-02-01T06:14:39.648Z,0
2018-02-01T06:15:49.593Z,4
2018-02-01T06:16:59.539Z,4
2018-02-01T06:18:09.497Z,4
2018-02-01T06:19:19.428Z,4
2018-02-01T06:20:28.867Z,8
2018-02-01T06:21:38.804Z,8
2018-02-01T06:22:48.485Z,8
2018-02-01T06:23:58.427Z,8
2018-02-01T06:25:08.603Z,12
2018-02-01T06:26:18.791Z,16
2018-02-01T06:27:28.746Z,20
2018-02-01T06:28:38.692Z,24
2018-02-01T06:29:48.636Z,28
2018-02-01T06:30:58.579Z,32
2018-02-01T06:32:08.526Z,40
2018-02-01T06:33:18.203Z,44
2018-02-01T06:34:27.901Z,48
2018-02-01T06:35:37.848Z,52
2018-02-01T06:36:47.805Z,64
2018-02-01T06:37:57.756Z,80
2018-02-01T06:39:07.697Z,92
2018-02-01T06:40:17.666Z,112
2018-02-01T06:41:27.373Z,132
2018-02-01T06:42:37.327Z,160
2018-02-01T06:43:47.261Z,184
2018-02-01T06:44:57.197Z,216
2018-02-01T06:46:06.896Z,244
2018-02-01T06:47:16.852Z,280
2018-02-01T06:48:26.807Z,312
2018-02-01T06:49:36.748Z,348
2018-02-01T06:50:46.697Z,388
2018-02-01T06:51:56.644Z,428
2018-02-01T06:53:06.639Z,472
2018-02-01T06:54:16.334Z,520
2018-02-01T06:55:26.610Z,572
2018-02-01T06:56:36.555Z,616
2018-02-01T06:57:46.496Z,668
2018-02-01T06:58:56.445Z,716
2018-02-01T07:00:06.421Z,764
2018-02-01T07:01:16.107Z,824
2018-02-01T07:02:25.791Z,880
2018-02-01T07:03:35.745Z,944
2018-02-01T07:04:45.443Z,1020
2018-02-01T07:05:55.126Z,1112
2018-02-01T07:07:05.068Z,1196
2018-02-01T07:08:14.757Z,1280
2018-02-01T07:09:24.710Z,1368
2018-02-01T07:10:34.148Z,1440
2018-02-01T07:11:44.202Z,1512
2018-02-01T07:12:53.892Z,1572
2018-02-01T07:14:03.888Z,1632
2018-02-01T07:15:13.593Z,1704
2018-02-01T07:16:23.808Z,1808
2018-02-01T07:17:33.797Z,1956
2018-02-01T07:18:43.771Z,2104
2018-02-01T07:19:53.498Z,2232
2018-02-01T07:21:03.466Z,2308
2018-02-01T07:22:13.453Z,2372
2018-02-01T07:23:23.419Z,2432
2018-02-01T07:24:33.605Z,2448
2018-02-01T07:25:43.501Z,2380
2018-02-01T07:26:53.446Z,2368
2018-02-01T07:28:03.120Z,2444
2018-02-01T07:29:12.607Z,2536
2018-02-01T07:30:22.682Z,2568
2018-02-01T07:31:32.666Z,2532
2018-02-01T07:32:42.407Z,2504
2018-02-01T07:33:52.486Z,2576
2018-02-01T07:35:02.483Z,2676
2018-02-01T07:36:12.483Z,2800
2018-02-01T07:37:21.916Z,2896
2018-02-01T07:38:31.628Z,2880
2018-02-01T07:39:41.336Z,2928
2018-02-01T07:40:51.291Z,2992
2018-02-01T07:42:01.229Z,3108
2018-02-01T07:43:10.659Z,3296
2018-02-01T07:44:20.084Z,3528
2018-02-01T07:45:30.043Z,3692
2018-02-01T07:46:39.997Z,3828
2018-02-01T07:47:49.970Z,3956
2018-02-01T07:48:59.672Z,4112
2018-02-01T07:50:09.367Z,4240
2018-02-01T07:51:19.329Z,4228
2018-02-01T07:52:29.026Z,4232
2018-02-01T07:53:39.061Z,4372
2018-02-01T07:54:49.203Z,4488
2018-02-01T07:55:59.180Z,4560
2018-02-01T07:57:08.890Z,4632
2018-02-01T07:58:18.605Z,4680
2018-02-01T07:59:28.553Z,4816
2018-02-01T08:00:37.987Z,5048
2018-02-01T08:01:47.926Z,5300
2018-02-01T08:02:57.870Z,5440
2018-02-01T08:04:07.815Z,5524
2018-02-01T08:05:17.920Z,5688
2018-02-01T08:06:27.606Z,5808
2018-02-01T08:07:37.687Z,5812
2018-02-01T08:08:47.654Z,5864
2018-02-01T08:09:57.371Z,5856
2018-02-01T08:11:07.337Z,5900
2018-02-01T08:12:17.389Z,5912
2018-02-01T08:13:27.446Z,5884
2018-02-01T08:14:37.395Z,5916
2018-02-01T08:15:47.343Z,6016
2018-02-01T08:16:57.371Z,6212
2018-02-01T08:18:07.338Z,6564
2018-02-01T08:19:17.283Z,6944
2018-02-01T08:20:26.979Z,7332
2018-02-01T08:21:36.922Z,7908
2018-02-01T08:22:46.924Z,8476
2018-02-01T08:23:56.114Z,8840
2018-02-01T08:25:06.074Z,8984
2018-02-01T08:26:15.520Z,8980
2018-02-01T08:27:25.731Z,9028
2018-02-01T08:28:35.748Z,9180
2018-02-01T08:29:45.189Z,9532
2018-02-01T08:30:54.627Z,9976
2018-02-01T08:32:04.578Z,10344
2018-02-01T08:33:14.529Z,10372
2018-02-01T08:34:24.739Z,10340
2018-02-01T08:35:34.682Z,10380
2018-02-01T08:36:44.631Z,10364
2018-02-01T08:37:54.065Z,10200
2018-02-01T08:39:04.019Z,11020
2018-02-01T08:40:13.979Z,11228
2018-02-01T08:41:23.950Z,10804
2018-02-01T08:42:33.914Z,11240
2018-02-01T08:43:43.673Z,11568
2018-02-01T08:44:53.662Z,12768
2018-02-01T08:46:03.127Z,12784
2018-02-01T08:47:12.878Z,11952
2018-02-01T08:48:22.873Z,11652
2018-02-01T08:49:32.867Z,11760
2018-02-01T08:50:42.844Z,11544
2018-02-01T08:51:52.364Z,12104
2018-02-01T08:53:02.019Z,12376
2018-02-01T08:54:11.990Z,12332
2018-02-01T08:55:21.927Z,12360
2018-02-01T08:56:31.615Z,13032
2018-02-01T08:57:41.577Z,13284
2018-02-01T08:58:51.291Z,13540
2018-02-01T09:00:01.252Z,14072
2018-02-01T09:01:11.210Z,13940
2018-02-01T09:02:21.225Z,14320
2018-02-01T09:03:31.190Z,14076
2018-02-01T09:04:40.899Z,14216
2018-02-01T09:05:50.842Z,14228
2018-02-01T09:07:00.803Z,13668
2018-02-01T09:08:10.237Z,13828
2018-02-01T09:09:19.934Z,12904
2018-02-01T09:10:29.637Z,13040
2018-02-01T09:11:39.404Z,13072
2018-02-01T09:12:48.851Z,12340
2018-02-01T09:13:58.821Z,12028
2018-02-01T09:15:08.521Z,12188
2018-02-01T09:16:18.216Z,12692
2018-02-01T09:17:28.178Z,15644
2018-02-01T09:18:37.924Z,16184
2018-02-01T09:19:47.950Z,15268
2018-02-01T09:20:58.224Z,15496
2018-02-01T09:22:08.418Z,15492
2018-02-01T09:23:18.379Z,13116
2018-02-01T09:24:28.078Z,11568
2018-02-01T09:25:38.026Z,11732
2018-02-01T09:26:47.464Z,12528
2018-02-01T09:27:57.461Z,11856
2018-02-01T09:29:07.417Z,11584
2018-02-01T09:30:17.113Z,11536
2018-02-01T09:31:27.048Z,12460
2018-02-01T09:32:36.975Z,14340
2018-02-01T09:33:46.694Z,17056
2018-02-01T09:34:56.678Z,14896
2018-02-01T09:36:06.647Z,15208
2018-02-01T09:37:16.643Z,18464
2018-02-01T09:38:26.399Z,22304
2018-02-01T09:39:36.340Z,22848
2018-02-01T09:40:45.793Z,22080
2018-02-01T09:41:55.769Z,22464
2018-02-01T09:43:05.757Z,27552
2018-02-01T09:44:15.702Z,26144
2018-02-01T09:45:25.664Z,38400
2018-02-01T09:46:35.620Z,44768
2018-02-01T09:47:45.320Z,34240
2018-02-01T09:48:55.105Z,34784
2018-02-01T09:50:05.079Z,42240
2018-02-01T09:51:15.043Z,49280
2018-02-01T09:52:25.033Z,49696
2018-02-01T09:53:34.995Z,52384
2018-02-01T09:54:44.713Z,35840
2018-02-01T09:55:54.691Z,37344
2018-02-01T09:57:04.705Z,40352
2018-02-01T09:58:14.154Z,36576
2018-02-01T09:59:24.111Z,44544
2018-02-01T10:00:34.078Z,50272
2018-02-01T10:01:44.300Z,50816
2018-02-01T10:02:54.305Z,46240
2018-02-01T10:04:04.270Z,38816
2018-02-01T10:05:14.238Z,38080
2018-02-01T10:06:24.257Z,36128
2018-02-01T10:07:33.951Z,35360
2018-02-01T10:08:43.912Z,38112
2018-02-01T10:09:53.390Z,38784
2018-02-01T10:11:03.357Z,37792
2018-02-01T10:12:13.362Z,40416
2018-02-01T10:13:22.816Z,35552
2018-02-01T10:14:32.551Z,33344
2018-02-01T10:15:42.258Z,35680
2018-02-01T10:16:51.954Z,33792
2018-02-01T10:18:01.706Z,38464
2018-02-01T10:19:11.674Z,32320
2018-02-01T10:20:21.637Z,36608
2018-02-01T10:21:31.595Z,32448
2018-02-01T10:22:41.564Z,34176
2018-02-01T10:23:51.528Z,35040
2018-02-01T10:25:01.739Z,33056
2018-02-01T10:26:11.704Z,41312
2018-02-01T10:27:21.677Z,45600
2018-02-01T10:28:31.376Z,40672
2018-02-01T10:29:41.354Z,36768
2018-02-01T10:30:51.085Z,45760
2018-02-01T10:32:00.790Z,51936
2018-02-01T10:33:10.550Z,48320
2018-02-01T10:34:20.501Z,47008
2018-02-01T10:35:30.202Z,47072
2018-02-01T10:36:39.888Z,59424
2018-02-01T10:37:49.593Z,50080
2018-02-01T10:38:59.560Z,63072
2018-02-01T10:40:09.605Z,62656
2018-02-01T10:41:19.631Z,60352
2018-02-01T10:42:29.389Z,52192
2018-02-01T10:43:39.387Z,38528
2018-02-01T10:44:49.411Z,46304
2018-02-01T10:45:59.432Z,51040
2018-02-01T10:47:09.673Z,44832
2018-02-01T10:48:19.426Z,50112
2018-02-01T10:49:29.434Z,42592
2018-02-01T10:50:39.642Z,43488
2018-02-01T10:51:49.655Z,54624
2018-02-01T10:52:59.391Z,51392
2018-02-01T10:54:09.448Z,58432
2018-02-01T10:55:19.491Z,55328
2018-02-01T10:56:29.516Z,58080
2018-02-01T10:57:39.530Z,65824
2018-02-01T10:58:49.583Z,67968
2018-02-01T10:59:59.644Z,66880
2018-02-01T11:01:09.739Z,69248
2018-02-01T11:02:19.748Z,69376
2018-02-01T11:03:29.735Z,61056
2018-02-01T11:04:39.736Z,57344
2018-02-01T11:05:49.466Z,66304
2018-02-01T11:06:59.208Z,61664
2018-02-01T11:08:09.189Z,63712
2018-02-01T11:09:18.934Z,77056
2018-02-01T11:10:28.919Z,71936
2018-02-01T11:11:38.713Z,50112
2018-02-01T11:12:48.454Z,45024
2018-02-01T11:13:58.184Z,47424
2018-02-01T11:15:07.938Z,54176
2018-02-01T11:16:17.425Z,55936
2018-02-01T11:17:26.655Z,56992
2018-02-01T11:18:36.123Z,53472
2018-02-01T11:19:46.125Z,52480
2018-02-01T11:20:56.130Z,33760
2018-02-01T11:22:05.870Z,51744
2018-02-01T11:23:15.324Z,44320
2018-02-01T11:24:24.560Z,34688
2018-02-01T11:25:34.306Z,48416
2018-02-01T11:26:44.301Z,46400
2018-02-01T11:27:54.041Z,40736
2018-02-01T11:29:03.810Z,31360
2018-02-01T11:30:13.566Z,34592
2018-02-01T11:31:23.568Z,37248
2018-02-01T11:32:33.554Z,34656
2018-02-01T11:33:43.543Z,28256
2018-02-01T11:34:53.534Z,29120
2018-02-01T11:36:03.542Z,32192
2018-02-01T11:37:13.540Z,30656
2018-02-01T11:38:23.560Z,31712
2018-02-01T11:39:33.309Z,26880
2018-02-01T11:40:43.310Z,25472
2018-02-01T11:41:53.060Z,26752
2018-02-01T11:43:03.058Z,27904
2018-02-01T11:44:13.068Z,30624
2018-02-01T11:45:23.085Z,27904
2018-02-01T11:46:33.082Z,28992
2018-02-01T11:47:42.566Z,30720
2018-02-01T11:48:52.580Z,25568
2018-02-01T11:50:02.565Z,24256
2018-02-01T11:51:12.766Z,23776
2018-02-01T11:52:22.285Z,24256
2018-02-01T11:53:32.047Z,26112
2018-02-01T11:54:42.058Z,29120
2018-02-01T11:55:52.045Z,35456
2018-02-01T11:57:02.049Z,46560
2018-02-01T11:58:11.854Z,65888
2018-02-01T11:59:21.859Z,56256
2018-02-01T12:00:31.853Z,39680
2018-02-01T12:01:41.591Z,24736
2018-02-01T12:02:51.592Z,37344
2018-02-01T12:04:01.319Z,29824
2018-02-01T12:05:11.319Z,26528
2018-02-01T12:06:21.328Z,29280
2018-02-01T12:07:31.071Z,31360
2018-02-01T12:08:41.083Z,29568
2018-02-01T12:09:50.824Z,23904
2018-02-01T12:11:00.842Z,22496
2018-02-01T12:12:10.851Z,24672
2018-02-01T12:13:20.896Z,23456
2018-02-01T12:14:30.899Z,29696
2018-02-01T12:15:40.884Z,46976
2018-02-01T12:16:50.623Z,73344
2018-02-01T12:18:00.633Z,88512
2018-02-01T12:19:10.376Z,94944
2018-02-01T12:20:20.422Z,91552
2018-02-01T12:21:30.392Z,92736
2018-02-01T12:22:40.104Z,94816
2018-02-01T12:23:49.813Z,93152
2018-02-01T12:24:59.791Z,94976
2018-02-01T12:26:09.244Z,95520
2018-02-01T12:27:18.978Z,92576
2018-02-01T12:28:28.963Z,90496
2018-02-01T12:29:38.922Z,89120
2018-02-01T12:30:48.898Z,89120
2018-02-01T12:31:58.653Z,92000
2018-02-01T12:33:08.094Z,94560
2018-02-01T12:34:18.064Z,92896
2018-02-01T12:35:28.027Z,90688
2018-02-01T12:36:37.988Z,94688
2018-02-01T12:37:47.950Z,95072
2018-02-01T12:38:57.976Z,93888
2018-02-01T12:40:07.957Z,95872
2018-02-01T12:41:17.949Z,94368
2018-02-01T12:42:30.309Z,96032
2018-02-01T12:44:43.932Z,91808
2018-02-01T12:46:12.903Z,95680
2018-02-01T12:47:22.644Z,96032
2018-02-01T12:48:32.609Z,87008
2018-02-01T12:49:42.571Z,83872
2018-02-01T12:50:52.018Z,87936
2018-02-01T12:52:02.016Z,87008
2018-02-01T12:53:11.988Z,86208
2018-02-01T12:54:21.928Z,89856
2018-02-01T12:55:31.908Z,88512
2018-02-01T12:56:41.894Z,85792
2018-02-01T12:57:51.590Z,84544
2018-02-01T12:59:01.341Z,80928
2018-02-01T13:00:11.302Z,55872
2018-02-01T13:01:21.069Z,91040
2018-02-01T13:02:31.051Z,91872
2018-02-01T13:03:41.034Z,90304
2018-02-01T13:04:50.731Z,90848
2018-02-01T13:06:00.689Z,80032
2018-02-01T13:07:10.418Z,69600
2018-02-01T13:08:20.108Z,90368
2018-02-01T13:09:30.495Z,90048
2018-02-01T13:10:40.527Z,89696
2018-02-01T13:11:50.255Z,86432
2018-02-01T13:12:59.725Z,79520
2018-02-01T13:14:09.690Z,70464
2018-02-01T13:15:19.409Z,58528
2018-02-01T13:16:29.390Z,71648
2018-02-01T13:17:39.356Z,49344
2018-02-01T13:18:49.316Z,85696
2018-02-01T13:19:59.084Z,85792
2018-02-01T13:21:09.072Z,60320
2018-02-01T13:22:18.785Z,59200
2018-02-01T13:23:28.547Z,79616
2018-02-01T13:24:38.609Z,85376
2018-02-01T13:25:48.602Z,84896
2018-02-01T13:26:58.354Z,81600
2018-02-01T13:28:08.340Z,82016
2018-02-01T13:29:18.084Z,83296
2018-02-01T13:30:27.848Z,78016
2018-02-01T13:31:37.580Z,73568
2018-02-01T13:32:47.567Z,75008
2018-02-01T13:33:57.316Z,74912
2018-02-01T13:35:07.332Z,75296
2018-02-01T13:36:17.331Z,71264
2018-02-01T13:37:27.318Z,71488
2018-02-01T13:38:37.325Z,72288
2018-02-01T13:39:47.287Z,78176
2018-02-01T13:40:57.360Z,55712
2018-02-01T13:42:07.383Z,66976
2018-02-01T13:43:17.367Z,74272
2018-02-01T13:44:27.377Z,72000
2018-02-01T13:45:37.402Z,72288
2018-02-01T13:46:47.412Z,74016
2018-02-01T13:47:57.174Z,75968
2018-02-01T13:49:07.444Z,75328
2018-02-01T13:50:17.446Z,76160
2018-02-01T13:51:27.446Z,78368
2018-02-01T13:52:37.458Z,76032
2018-02-01T13:53:47.473Z,67648
2018-02-01T13:54:57.210Z,22528
2018-02-01T13:56:07.227Z,68736
2018-02-01T13:57:17.218Z,69120
2018-02-01T13:58:27.445Z,73600
2018-02-01T13:59:37.204Z,66240
2018-02-01T14:00:47.261Z,67424
2018-02-01T14:01:57.258Z,70144
2018-02-01T14:03:07.021Z,23424
2018-02-01T14:04:17.024Z,12900
2018-02-01T14:05:27.028Z,35840
2018-02-01T14:06:36.812Z,55392
2018-02-01T14:07:46.820Z,53440
2018-02-01T14:08:56.822Z,42016
2018-02-01T14:10:06.832Z,19264
2018-02-01T14:11:16.576Z,25696
2018-02-01T14:12:26.329Z,58400
2018-02-01T14:13:36.311Z,55296
2018-02-01T14:14:46.031Z,40288
2018-02-01T14:15:56.086Z,33312
2018-02-01T14:17:06.087Z,18080
2018-02-01T14:18:15.905Z,16768
2018-02-01T14:19:25.649Z,28608
2018-02-01T14:20:35.660Z,58688
2018-02-01T14:21:45.686Z,62016
2018-02-01T14:22:55.975Z,61248
2018-02-01T14:24:05.704Z,61920
2018-02-01T14:25:15.726Z,58784
2018-02-01T14:26:25.735Z,15704
2018-02-01T14:27:35.206Z,11552
2018-02-01T14:28:45.200Z,12528
2018-02-01T14:29:55.221Z,19360
2018-02-01T14:31:05.322Z,42336
2018-02-01T14:32:15.322Z,23488
2018-02-01T14:33:25.332Z,13612
2018-02-01T14:34:34.851Z,14028
2018-02-01T14:35:44.657Z,46464
2018-02-01T14:36:54.660Z,48576
2018-02-01T14:38:04.663Z,46752
2018-02-01T14:39:14.681Z,48128
2018-02-01T14:40:24.438Z,48320
2018-02-01T14:41:34.200Z,46016
2018-02-01T14:42:43.944Z,39616
2018-02-01T14:43:53.669Z,42048
2018-02-01T14:45:03.437Z,43424
2018-02-01T14:46:13.436Z,43200
2018-02-01T14:47:23.431Z,32864
2018-02-01T14:48:33.458Z,25760
2018-02-01T14:49:43.459Z,35392
2018-02-01T14:50:52.932Z,34112
2018-02-01T14:52:02.937Z,36640
2018-02-01T14:53:12.980Z,36448
2018-02-01T14:54:23.002Z,32928
2018-02-01T14:55:32.991Z,29792
2018-02-01T14:56:42.999Z,28672
2018-02-01T14:57:52.988Z,27072
2018-02-01T14:59:02.986Z,26368
2018-02-01T15:00:12.968Z,23264
2018-02-01T15:01:22.445Z,20544
2018-02-01T15:02:32.442Z,21632
2018-02-01T15:03:42.181Z,19936
2018-02-01T15:04:51.664Z,16480
2018-02-01T15:06:01.668Z,18720
2018-02-01T15:07:11.431Z,16480
2018-02-01T15:08:21.405Z,11456
2018-02-01T15:09:30.888Z,9564
2018-02-01T15:10:40.895Z,11200
2018-02-01T15:11:50.935Z,11872
2018-02-01T15:13:00.937Z,12928
2018-02-01T15:14:10.920Z,9956
2018-02-01T15:15:20.937Z,7368
2018-02-01T15:16:30.949Z,6428
2018-02-01T15:17:40.975Z,6152
2018-02-01T15:18:50.966Z,5796
2018-02-01T15:20:00.968Z,5400
2018-02-01T15:21:10.713Z,4984
2018-02-01T15:22:20.704Z,4608
2018-02-01T15:23:30.703Z,4368
2018-02-01T15:24:40.697Z,4192
2018-02-01T15:25:50.202Z,4012
2018-02-01T15:26:59.935Z,3764
2018-02-01T15:28:09.932Z,3552
2018-02-01T15:29:19.401Z,3288
2018-02-01T15:30:29.399Z,2968
2018-02-01T15:31:39.124Z,2640
2018-02-01T15:32:48.861Z,2340
2018-02-01T15:33:58.841Z,2124
2018-02-01T15:35:08.846Z,1956
2018-02-01T15:36:18.889Z,1780
2018-02-01T15:37:28.902Z,1600
2018-02-01T15:38:38.907Z,1392
2018-02-01T15:39:48.919Z,1156
2018-02-01T15:40:58.400Z,948
2018-02-01T15:42:08.481Z,776
2018-02-01T15:43:18.231Z,632
2018-02-01T15:44:28.213Z,524
2018-02-01T15:45:37.948Z,448
2018-02-01T15:46:47.946Z,404
2018-02-01T15:47:57.933Z,380
2018-02-01T15:49:07.930Z,356
2018-02-01T15:50:17.930Z,320
2018-02-01T15:51:27.689Z,276
2018-02-01T15:52:37.678Z,236
2018-02-01T15:53:47.685Z,200
2018-02-01T15:54:57.687Z,184
2018-02-01T15:56:07.677Z,164
2018-02-01T15:57:17.686Z,144
2018-02-01T15:58:27.659Z,132
2018-02-01T15:59:37.663Z,116